Time;durP1;ratioP1;P1;durP2;ratioP2;P2;SDS_P1;SDS_P2;PMS_P1;PMS_P2;Temp;Humidity;BMP_temperature;BMP_pressure;BME280_temperature;BME280_humidity;BME280_pressure;Samples;Min_cycle;Max_cycle;Signal;HPM_P1;HPM_P2
2021/05/23 00:02:24;;;;;;;1.10;0.80;;;;;;;20.90;47.33;101554.64;1669509;85;21060;-48
2021/05/23 00:04:50;;;;;;;1.02;0.80;;;;;;;20.82;47.19;101554.19;1717531;82;21067;-48
2021/05/23 00:07:18;;;;;;;2.77;0.93;;;;;;;20.83;46.98;101553.27;1706773;81;22591;-48
2021/05/23 00:09:45;;;;;;;0.80;0.80;;;;;;;20.81;46.97;101550.31;1708542;82;21111;-48
2021/05/23 00:12:15;;;;;;;0.82;0.82;;;;;;;20.79;47.10;101559.63;1713247;82;21060;-48
2021/05/23 00:14:42;;;;;;;1.20;1.10;;;;;;;20.77;47.44;101570.75;1716824;81;21168;-48
2021/05/23 00:17:10;;;;;;;1.12;0.85;;;;;;;20.76;47.98;101567.73;1729286;81;21104;-48
2021/05/23 00:19:39;;;;;;;1.45;1.35;;;;;;;20.76;48.50;101565.08;1712779;83;21053;-48
2021/05/23 00:22:06;;;;;;;1.17;1.07;;;;;;;20.77;48.89;101570.75;1745460;81;21078;-48
2021/05/23 00:24:33;;;;;;;1.40;1.12;;;;;;;20.80;49.23;101570.61;1733457;81;21123;-48
2021/05/23 00:26:59;;;;;;;1.67;1.10;;;;;;;20.83;49.44;101568.28;1713628;82;21051;-48
2021/05/23 00:29:27;;;;;;;1.70;1.15;;;;;;;20.85;49.67;101568.59;1722027;82;21011;-48
2021/05/23 00:31:53;;;;;;;1.25;1.07;;;;;;;20.85;49.77;101564.63;1722952;82;21028;-49
2021/05/23 00:34:20;;;;;;;1.65;1.52;;;;;;;20.86;50.00;101571.61;1699653;81;21133;-48
2021/05/23 00:36:48;;;;;;;1.62;1.10;;;;;;;20.86;50.09;101559.70;1698553;82;21657;-48
2021/05/23 00:39:14;;;;;;;1.57;1.12;;;;;;;20.88;50.12;101563.13;1709170;83;21096;-48
2021/05/23 00:41:41;;;;;;;2.67;1.35;;;;;;;20.89;49.92;101551.63;1727768;82;21101;-48
2021/05/23 00:44:08;;;;;;;1.62;1.30;;;;;;;20.90;50.08;101544.06;1720253;82;21616;-48
2021/05/23 00:46:35;;;;;;;2.20;1.10;;;;;;;20.90;50.56;101540.09;1725270;81;21120;-49
2021/05/23 00:49:03;;;;;;;2.08;1.27;;;;;;;20.91;51.21;101529.91;1758696;78;21079;-48
2021/05/23 00:51:30;;;;;;;1.70;1.20;;;;;;;20.91;51.65;101531.70;1771232;79;21052;-48
2021/05/23 00:53:57;;;;;;;1.30;1.20;;;;;;;20.89;51.95;101536.22;1763150;79;21043;-48
2021/05/23 00:56:25;;;;;;;2.40;1.20;;;;;;;20.86;52.12;101530.61;1788252;79;21056;-49
2021/05/23 00:58:52;;;;;;;1.50;1.00;;;;;;;20.83;52.27;101528.59;1776575;79;21064;-48
2021/05/23 01:01:48;;;;;;;2.98;1.20;;;;;;;20.80;52.36;101525.64;1774798;79;21024;-49
2021/05/23 01:04:15;;;;;;;1.57;1.00;;;;;;;20.78;52.44;101534.13;1795315;79;21099;-48
2021/05/23 01:06:42;;;;;;;3.15;1.30;;;;;;;20.76;52.42;101537.31;1774365;79;21048;-48
2021/05/23 01:09:09;;;;;;;2.67;1.25;;;;;;;20.74;52.55;101543.61;1778044;79;21044;-49
2021/05/23 01:11:45;;;;;;;2.08;1.27;;;;;;;20.73;52.74;101552.00;1765824;79;21067;-48
2021/05/23 01:14:50;;;;;;;1.20;1.10;;;;;;;20.71;52.98;101551.22;1763861;80;21068;-48
2021/05/23 01:17:20;;;;;;;3.83;1.60;;;;;;;20.68;53.13;101543.46;1696643;83;21592;-49
2021/05/23 01:19:59;;;;;;;2.00;1.22;;;;;;;20.67;53.20;101540.41;1720904;81;21072;-48
2021/05/23 01:22:42;;;;;;;2.40;1.22;;;;;;;20.65;53.35;101538.31;1647663;85;21082;-49
2021/05/23 01:25:17;;;;;;;2.65;1.10;;;;;;;20.64;53.41;101540.59;1632183;86;21631;-48
2021/05/23 01:27:47;;;;;;;1.90;1.57;;;;;;;20.63;53.48;101547.28;1607775;86;21154;-48
2021/05/23 01:30:21;;;;;;;1.50;1.15;;;;;;;20.62;53.61;101547.74;1595085;88;21121;-49
2021/05/23 01:32:48;;;;;;;2.37;1.25;;;;;;;20.61;53.73;101549.16;1583144;88;21077;-49
2021/05/23 01:35:20;;;;;;;3.05;1.20;;;;;;;20.60;53.75;101554.90;1644186;86;21630;-49
2021/05/23 01:37:48;;;;;;;;;;;;;;;20.59;53.81;101551.85;1629484;86;21092;-48
2021/05/23 01:40:17;;;;;;;2.77;1.30;;;;;;;20.59;53.88;101543.92;1631211;86;20192;-48
2021/05/23 01:42:45;;;;;;;2.45;1.20;;;;;;;20.59;53.93;101542.59;1626395;86;21659;-48
2021/05/23 01:45:14;;;;;;;1.32;1.00;;;;;;;20.59;54.00;101537.77;1624126;86;21128;-48
2021/05/23 01:47:40;;;;;;;3.25;1.30;;;;;;;20.61;54.06;101544.70;1616338;86;21099;-48
2021/05/23 01:50:09;;;;;;;5.90;1.25;;;;;;;20.60;54.19;101545.64;1623695;86;21121;-49
2021/05/23 01:52:38;;;;;;;1.75;1.20;;;;;;;20.59;54.22;101538.63;1601876;86;21052;-49
2021/05/23 01:55:08;;;;;;;2.15;1.30;;;;;;;20.60;54.22;101540.36;1604183;87;21132;-49
2021/05/23 01:57:35;;;;;;;4.17;1.40;;;;;;;20.60;54.19;101543.45;1618655;87;21096;-48
2021/05/23 02:00:02;;;;;;;3.20;1.35;;;;;;;20.59;54.20;101548.34;1650596;84;21150;-48
2021/05/23 02:02:32;;;;;;;3.33;1.60;;;;;;;20.58;54.21;101556.77;1665888;84;21083;-48
2021/05/23 02:04:58;;;;;;;1.32;1.15;;;;;;;20.55;54.20;101559.55;1663517;84;21071;-48
2021/05/23 02:07:27;;;;;;;3.05;1.20;;;;;;;20.53;54.30;101560.09;1659501;84;21108;-48
2021/05/23 02:09:55;;;;;;;2.72;1.50;;;;;;;20.51;54.30;101557.99;1662208;84;21087;-48
2021/05/23 02:12:22;;;;;;;4.75;1.45;;;;;;;20.47;54.39;101557.76;1666260;83;21087;-49
2021/05/23 02:14:49;;;;;;;2.27;1.10;;;;;;;20.43;54.49;101557.52;1702946;83;21097;-48
2021/05/23 02:17:16;;;;;;;3.42;1.35;;;;;;;20.41;54.49;101558.52;1705594;83;21091;-48
2021/05/23 02:19:51;;;;;;;7.03;2.05;;;;;;;20.38;54.50;101562.17;1745281;79;21602;-49
2021/05/23 02:22:18;;;;;;;3.52;1.25;;;;;;;20.36;54.63;101568.00;1775233;79;21576;-48
2021/05/23 02:24:45;;;;;;;2.83;1.20;;;;;;;20.36;54.74;101572.45;1775709;79;21678;-49
2021/05/23 02:27:12;;;;;;;2.40;1.20;;;;;;;20.34;54.87;101571.19;1782174;79;21054;-49
2021/05/23 02:29:39;;;;;;;3.62;1.20;;;;;;;20.33;54.96;101569.95;1776967;79;21087;-47
2021/05/23 02:32:07;;;;;;;4.35;1.20;;;;;;;20.32;55.02;101566.44;1782575;79;21598;-48
2021/05/23 02:34:47;;;;;;;4.12;1.60;;;;;;;20.32;55.10;101571.72;1774081;79;20992;-49
2021/05/23 02:37:14;;;;;;;3.42;1.27;;;;;;;20.33;55.19;101575.23;1724425;83;21103;-48
2021/05/23 02:39:41;;;;;;;2.02;1.40;;;;;;;20.32;55.22;101575.69;1720941;83;21084;-48
2021/05/23 02:42:08;;;;;;;1.55;1.10;;;;;;;20.30;55.30;101576.23;1719545;82;21063;-49
2021/05/23 02:44:35;;;;;;;1.82;1.12;;;;;;;20.31;55.39;101579.73;1724276;82;21071;-48
2021/05/23 02:47:02;;;;;;;4.05;1.07;;;;;;;20.29;55.46;101582.46;1723099;82;21056;-49
2021/05/23 02:49:28;;;;;;;1.20;1.10;;;;;;;20.32;55.56;101586.75;1721416;82;21167;-48
2021/05/23 02:51:55;;;;;;;2.20;1.30;;;;;;;20.31;55.63;101579.28;1690919;83;21064;-47
2021/05/23 02:54:23;;;;;;;2.45;1.22;;;;;;;20.32;55.70;101583.62;1709245;82;21103;-48
2021/05/23 02:56:49;;;;;;;2.25;1.25;;;;;;;20.35;55.68;101582.62;1711835;82;21075;-48
2021/05/23 02:59:16;;;;;;;1.70;1.00;;;;;;;20.37;55.71;101588.69;1721875;82;21063;-48
2021/05/23 03:01:43;;;;;;;2.47;1.27;;;;;;;20.40;55.67;101581.94;1720408;82;21558;-48
2021/05/23 03:04:09;;;;;;;2.95;1.20;;;;;;;20.42;55.61;101583.59;1716273;82;21096;-48
2021/05/23 03:06:37;;;;;;;2.30;1.10;;;;;;;20.45;55.65;101583.42;1716156;82;21047;-48
2021/05/23 03:09:04;;;;;;;4.42;1.20;;;;;;;20.48;55.64;101588.56;1722916;82;21048;-49
2021/05/23 03:11:30;;;;;;;1.20;1.10;;;;;;;20.51;55.57;101577.82;1716969;82;21067;-48
2021/05/23 03:13:57;;;;;;;3.83;1.17;;;;;;;20.53;55.49;101581.25;1717713;83;21056;-48
2021/05/23 03:16:24;;;;;;;2.42;1.25;;;;;;;20.56;55.43;101583.75;1720575;82;21630;-48
2021/05/23 03:18:52;;;;;;;2.08;1.27;;;;;;;20.58;55.35;101577.92;1723549;82;21060;-48
2021/05/23 03:21:21;;;;;;;4.05;1.67;;;;;;;20.62;55.31;101572.00;1725852;82;21028;-49
2021/05/23 03:23:47;;;;;;;3.75;1.40;;;;;;;20.65;55.18;101576.66;1723267;83;21579;-48
2021/05/23 03:26:14;;;;;;;3.27;1.50;;;;;;;20.69;55.05;101570.28;1721548;82;21052;-49
2021/05/23 03:28:41;;;;;;;1.40;1.20;;;;;;;20.73;54.85;101573.16;1725400;83;21590;-48
2021/05/23 03:31:08;;;;;;;4.08;1.17;;;;;;;20.79;54.66;101572.84;1726398;83;21072;-48
2021/05/23 03:33:35;;;;;;;3.30;1.20;;;;;;;20.93;54.04;101575.66;1789463;79;21044;-48
2021/05/23 03:36:02;;;;;;;2.33;1.10;;;;;;;21.13;53.22;101572.46;1717588;82;21553;-48
2021/05/23 03:38:28;;;;;;;3.95;1.05;;;;;;;21.36;52.17;101571.65;1768239;80;21083;-48
2021/05/23 03:40:55;;;;;;;1.00;0.90;;;;;;;21.55;51.11;101569.73;1766095;79;21051;-48
2021/05/23 03:43:22;;;;;;;2.37;1.30;;;;;;;21.70;50.52;101566.72;1769027;80;21016;-48
2021/05/23 03:45:49;;;;;;;2.15;1.00;;;;;;;21.80;50.10;101558.64;1769717;80;21023;-48
2021/05/23 03:48:16;;;;;;;1.10;0.90;;;;;;;21.88;49.67;101554.63;1779517;79;21047;-48
2021/05/23 03:50:42;;;;;;;1.82;1.10;;;;;;;21.94;49.49;101548.16;1764860;80;21083;-49
2021/05/23 03:53:09;;;;;;;2.02;1.20;;;;;;;22.02;49.37;101547.72;1780389;79;21083;-49
2021/05/23 03:55:37;;;;;;;1.70;1.07;;;;;;;22.10;49.24;101560.92;1766750;79;21648;-48
2021/05/23 03:58:05;;;;;;;1.95;0.90;;;;;;;22.19;49.06;101556.44;1722995;82;21576;-48
2021/05/23 04:00:33;;;;;;;2.12;1.00;;;;;;;22.29;48.71;101548.33;1735028;82;21064;-48
2021/05/23 04:03:00;;;;;;;1.50;1.02;;;;;;;22.36;48.56;101556.30;1714543;83;21103;-48
2021/05/23 04:05:27;;;;;;;1.20;1.10;;;;;;;22.42;48.35;101555.11;1775880;80;21569;-49
2021/05/23 04:07:55;;;;;;;1.90;1.15;;;;;;;22.43;48.16;101555.02;1777210;80;21104;-48
2021/05/23 04:10:29;;;;;;;3.00;1.20;;;;;;;22.42;48.06;101553.28;1783467;80;21554;-48
2021/05/23 04:12:55;;;;;;;4.55;1.40;;;;;;;22.40;48.05;101561.80;1780831;79;21587;-48
2021/05/23 04:15:24;;;;;;;4.40;1.30;;;;;;;22.40;48.01;101560.97;1770161;80;21535;-48
2021/05/23 04:17:50;;;;;;;4.58;1.50;;;;;;;22.37;47.89;101567.30;1759416;80;21085;-48
2021/05/23 04:20:20;;;;;;;1.55;1.00;;;;;;;22.35;47.92;101570.52;1763569;80;21031;-48
2021/05/23 04:22:48;;;;;;;3.98;1.00;;;;;;;22.33;47.97;101575.05;1779412;79;21666;-49
2021/05/23 04:25:16;;;;;;;1.85;1.00;;;;;;;22.32;48.12;101581.28;1795266;79;21523;-48
2021/05/23 04:27:45;;;;;;;4.37;1.32;;;;;;;22.33;48.13;101583.01;1759001;80;21033;-48
2021/05/23 04:30:14;;;;;;;3.75;1.72;;;;;;;22.34;48.12;101584.70;1770398;79;21052;-48
2021/05/23 04:32:40;;;;;;;3.40;1.50;;;;;;;22.37;48.21;101589.84;1724227;82;22270;-48
2021/05/23 04:35:09;;;;;;;3.12;1.17;;;;;;;22.40;48.27;101590.15;1783148;79;21032;-49
2021/05/23 04:37:37;;;;;;;6.22;2.08;;;;;;;22.43;47.89;101594.80;1785205;79;21539;-48
2021/05/23 04:40:06;;;;;;;3.22;1.37;;;;;;;22.47;47.81;101595.46;1766039;80;21123;-48
2021/05/23 04:42:32;;;;;;;2.92;1.30;;;;;;;22.49;47.78;101594.44;1781179;79;21539;-48
2021/05/23 04:44:59;;;;;;;2.17;1.02;;;;;;;22.52;48.16;101596.89;1779761;79;21050;-48
2021/05/23 04:47:27;;;;;;;2.60;0.90;;;;;;;22.56;47.98;101598.45;1775501;79;21060;-48
2021/05/23 04:49:54;;;;;;;1.15;1.00;;;;;;;22.58;48.21;101610.33;1766558;80;21032;-48
2021/05/23 04:52:21;;;;;;;2.75;1.17;;;;;;;22.60;48.24;101610.63;1770330;79;21031;-48
2021/05/23 04:54:49;;;;;;;4.72;1.12;;;;;;;22.64;48.34;101612.16;1773081;79;21107;-48
2021/05/23 04:57:16;;;;;;;3.83;1.30;;;;;;;22.68;48.15;101607.52;1772933;79;21071;-48
2021/05/23 04:59:42;;;;;;;3.12;0.90;;;;;;;22.75;48.36;101623.94;1773204;79;21099;-48
2021/05/23 05:02:09;;;;;;;1.95;1.10;;;;;;;22.80;48.30;101611.24;1777469;79;21028;-48
2021/05/23 05:04:35;;;;;;;2.77;0.90;;;;;;;22.86;48.26;101609.09;1759352;80;21021;-48
2021/05/23 05:07:04;;;;;;;3.98;1.35;;;;;;;22.98;48.40;101613.66;1772343;80;21044;-49
2021/05/23 05:09:31;;;;;;;1.47;1.00;;;;;;;23.25;48.14;101625.75;1774567;79;21147;-49
2021/05/23 05:11:58;;;;;;;2.62;1.07;;;;;;;23.61;46.91;101618.70;1781872;80;21083;-49
2021/05/23 05:14:25;;;;;;;1.10;0.88;;;;;;;24.00;46.11;101615.72;1773454;80;21037;-49
2021/05/23 05:16:52;;;;;;;3.90;1.25;;;;;;;24.36;45.38;101619.66;1777593;79;21075;-48
2021/05/23 05:19:19;;;;;;;0.70;0.70;;;;;;;24.68;44.81;101623.23;1778333;80;21080;-49
2021/05/23 05:21:45;;;;;;;1.07;0.90;;;;;;;25.01;44.21;101621.46;1766750;79;21056;-49
2021/05/23 05:24:12;;;;;;;2.00;1.00;;;;;;;25.29;43.24;101610.60;1781452;80;21024;-49
2021/05/23 05:26:40;;;;;;;3.02;1.10;;;;;;;25.65;42.90;101608.07;1775274;80;21574;-48
2021/05/23 05:29:06;;;;;;;1.40;0.70;;;;;;;26.05;42.46;101603.88;1704883;82;21595;-49
2021/05/23 05:31:33;;;;;;;1.92;1.05;;;;;;;26.46;41.78;101601.71;1728934;81;21056;-49
2021/05/23 05:34:00;;;;;;;2.17;1.20;;;;;;;26.92;40.61;101599.95;1726799;82;21049;-49
2021/05/23 05:36:27;;;;;;;1.82;1.10;;;;;;;27.37;39.51;101599.09;1731316;82;21575;-49
2021/05/23 05:38:54;;;;;;;2.15;1.00;;;;;;;27.75;38.36;101597.88;1735219;81;21067;-49
2021/05/23 05:41:21;;;;;;;4.12;0.75;;;;;;;28.03;37.64;101597.38;1732768;82;21045;-48
2021/05/23 05:43:48;;;;;;;2.83;1.50;;;;;;;28.26;37.45;101597.69;1745827;81;21072;-48
2021/05/23 05:46:15;;;;;;;1.77;0.93;;;;;;;28.42;37.15;101599.45;1721059;82;21588;-49
2021/05/23 05:48:42;;;;;;;1.80;1.10;;;;;;;28.46;36.91;101600.90;1719172;82;21052;-49
2021/05/23 05:51:10;;;;;;;1.10;0.80;;;;;;;28.43;36.87;101594.95;1739182;81;21112;-49
2021/05/23 05:53:37;;;;;;;6.33;1.62;;;;;;;28.38;37.13;101598.52;1732341;81;21103;-49
2021/05/23 05:56:05;;;;;;;2.80;1.00;;;;;;;28.34;36.82;101603.77;1739325;80;21069;-49
2021/05/23 05:58:32;;;;;;;6.22;1.72;;;;;;;28.32;36.81;101603.02;1760408;80;21056;-50
2021/05/23 06:00:59;;;;;;;2.33;1.12;;;;;;;28.31;36.95;101604.87;1771304;80;21032;-50
2021/05/23 06:03:25;;;;;;;3.27;1.10;;;;;;;28.31;36.84;101604.87;1777355;79;21095;-49
2021/05/23 06:05:52;;;;;;;1.47;0.98;;;;;;;28.35;36.74;101608.13;1735553;81;21100;-49
2021/05/23 06:08:18;;;;;;;6.50;1.85;;;;;;;28.39;36.57;101620.28;1779836;79;21041;-49
2021/05/23 06:10:45;;;;;;;1.10;1.00;;;;;;;28.39;36.60;101615.78;1771775;79;21053;-49
2021/05/23 06:13:12;;;;;;;2.40;0.93;;;;;;;28.40;37.05;101620.66;1769919;79;21075;-49
2021/05/23 06:15:39;;;;;;;1.90;0.90;;;;;;;28.39;37.19;101625.64;1777396;80;21021;-50
2021/05/23 06:18:06;;;;;;;2.42;1.40;;;;;;;28.39;36.84;101628.31;1769472;80;21052;-49
2021/05/23 06:20:33;;;;;;;2.52;1.20;;;;;;;28.41;36.91;101627.70;1758698;79;21080;-48
2021/05/23 06:23:00;;;;;;;2.47;1.00;;;;;;;28.44;36.93;101624.27;1778966;78;21012;-48
2021/05/23 06:25:27;;;;;;;2.67;1.20;;;;;;;28.48;36.90;101624.38;1770981;79;21538;-49
2021/05/23 06:27:54;;;;;;;7.15;1.62;;;;;;;28.58;36.62;101624.03;1772224;79;21033;-49
2021/05/23 06:30:22;;;;;;;1.27;0.90;;;;;;;28.68;36.60;101622.28;1772988;80;21163;-48
2021/05/23 06:32:49;;;;;;;1.07;1.00;;;;;;;28.76;36.93;101633.20;1775618;80;21053;-49
2021/05/23 06:35:17;;;;;;;1.10;1.02;;;;;;;28.75;36.31;101635.50;1774034;80;21097;-49
2021/05/23 06:37:47;;;;;;;1.67;1.00;;;;;;;28.66;36.21;101638.97;1772140;80;21064;-49
2021/05/23 06:40:15;;;;;;;1.32;1.15;;;;;;;28.57;36.25;101635.71;1779276;79;21547;-49
2021/05/23 06:42:42;;;;;;;1.85;1.30;;;;;;;28.52;36.54;101641.89;1775176;79;21515;-49
2021/05/23 06:45:10;;;;;;;1.65;1.00;;;;;;;28.49;37.02;101632.79;1779191;79;21045;-49
2021/05/23 06:47:36;;;;;;;2.02;1.25;;;;;;;28.47;37.21;101636.08;1782218;78;21036;-47
2021/05/23 06:50:05;;;;;;;2.35;1.20;;;;;;;28.45;37.19;101628.66;1771125;78;21029;-48
2021/05/23 06:52:32;;;;;;;3.33;1.77;;;;;;;28.46;37.17;101621.49;1772286;79;21539;-48
2021/05/23 06:54:58;;;;;;;3.20;1.45;;;;;;;28.49;37.34;101623.89;1771522;79;21048;-50
2021/05/23 06:57:25;;;;;;;1.20;1.00;;;;;;;28.58;37.60;101625.86;1770397;79;21538;-48
2021/05/23 06:59:52;;;;;;;3.58;1.35;;;;;;;28.70;37.46;101625.69;1712052;82;21065;-49
2021/05/23 07:02:20;;;;;;;1.00;0.90;;;;;;;28.83;37.49;101622.31;1721284;82;21647;-50
2021/05/23 07:04:49;;;;;;;1.90;1.12;;;;;;;28.93;37.37;101621.89;1708024;82;21364;-50
2021/05/23 07:07:16;;;;;;;1.25;1.07;;;;;;;29.03;37.34;101629.16;1776946;79;21142;-48
2021/05/23 07:09:44;;;;;;;5.25;1.10;;;;;;;29.20;36.95;101629.47;1771919;80;21032;-47
2021/05/23 07:12:11;;;;;;;2.17;1.00;;;;;;;29.40;36.52;101625.05;1772742;80;21064;-50
2021/05/23 07:14:39;;;;;;;0.93;0.93;;;;;;;29.50;36.00;101625.46;1728285;80;21150;-50
2021/05/23 07:17:07;;;;;;;1.52;1.02;;;;;;;29.53;36.29;101631.06;1713959;82;21706;-48
2021/05/23 07:19:34;;;;;;;1.72;1.02;;;;;;;29.50;36.55;101620.58;1716935;82;21041;-48
2021/05/23 07:22:01;;;;;;;1.27;0.90;;;;;;;29.46;35.98;101620.01;1775952;79;21105;-47
2021/05/23 07:24:28;;;;;;;1.47;1.15;;;;;;;29.43;35.95;101620.27;1775401;79;21035;-48
2021/05/23 07:26:56;;;;;;;2.22;1.40;;;;;;;29.40;36.05;101621.89;1767272;80;21634;-49
2021/05/23 07:29:22;;;;;;;1.40;1.30;;;;;;;29.40;36.22;101620.55;1775084;79;21092;-49
2021/05/23 07:31:49;;;;;;;1.70;1.10;;;;;;;29.42;36.05;101620.41;1779549;79;21029;-49
2021/05/23 07:34:16;;;;;;;2.98;1.50;;;;;;;29.52;36.06;101622.16;1778163;79;21043;-47
2021/05/23 07:36:43;;;;;;;1.62;1.52;;;;;;;29.54;36.12;101619.33;1784132;79;21078;-49
2021/05/23 07:39:10;;;;;;;4.97;1.67;;;;;;;29.54;36.16;101617.50;1761752;80;21060;-49
2021/05/23 07:41:37;;;;;;;3.12;1.67;;;;;;;29.56;36.65;101620.90;1777117;79;21063;-49
2021/05/23 07:44:04;;;;;;;1.32;1.15;;;;;;;29.53;36.17;101625.69;1720161;81;21052;-50
2021/05/23 07:46:31;;;;;;;1.55;1.30;;;;;;;29.47;36.06;101623.55;1735363;80;21619;-49
2021/05/23 07:48:58;;;;;;;1.80;1.00;;;;;;;29.38;36.36;101623.00;1734239;81;21040;-50
2021/05/23 07:51:26;;;;;;;3.35;1.40;;;;;;;29.31;36.37;101612.43;1742206;81;21036;-49
2021/05/23 07:53:53;;;;;;;4.30;1.50;;;;;;;29.24;36.39;101611.28;1716234;82;21289;-48
2021/05/23 07:56:19;;;;;;;1.90;1.22;;;;;;;29.13;36.38;101608.63;1709144;83;21076;-49
2021/05/23 07:58:46;;;;;;;5.72;1.60;;;;;;;29.06;36.74;101614.17;1711220;82;21057;-47
2021/05/23 08:01:15;;;;;;;1.57;1.47;;;;;;;28.98;36.87;101614.33;1774569;79;21048;-48
2021/05/23 08:03:43;;;;;;;3.72;1.40;;;;;;;28.88;36.86;101616.58;1776534;79;21089;-50
2021/05/23 08:06:12;;;;;;;1.87;1.30;;;;;;;28.76;37.04;101613.59;1772270;79;21096;-49
2021/05/23 08:08:39;;;;;;;1.27;1.17;;;;;;;28.63;37.23;101620.47;1768126;79;21045;-50
2021/05/23 08:11:06;;;;;;;2.80;1.37;;;;;;;28.47;37.42;101625.38;1772321;79;21563;-50
2021/05/23 08:13:33;;;;;;;1.98;1.00;;;;;;;28.31;37.81;101628.09;1771119;79;21566;-50
2021/05/23 08:16:00;;;;;;;2.67;1.27;;;;;;;28.14;38.27;101626.80;1746078;81;21096;-49
2021/05/23 08:18:30;;;;;;;1.90;1.07;;;;;;;27.98;38.74;101623.19;1788856;79;21020;-47
2021/05/23 08:21:01;;;;;;;2.33;1.10;;;;;;;27.89;38.99;101619.02;1775751;79;21150;-49
2021/05/23 08:23:29;;;;;;;2.08;1.45;;;;;;;27.79;39.15;101620.73;1780597;78;21021;-50
2021/05/23 08:25:57;;;;;;;1.92;1.22;;;;;;;27.70;39.29;101617.47;1764343;79;21603;-49
2021/05/23 08:28:23;;;;;;;2.27;1.50;;;;;;;27.60;39.52;101619.14;1782228;79;21009;-50
2021/05/23 08:30:50;;;;;;;2.25;1.20;;;;;;;27.48;39.70;101613.44;1778041;79;21634;-49
2021/05/23 08:33:17;;;;;;;4.28;1.30;;;;;;;27.24;40.17;101611.67;1762552;80;21052;-49
2021/05/23 08:35:44;;;;;;;1.95;1.40;;;;;;;27.24;40.17;101611.67;1737880;81;21028;-49
2021/05/23 08:38:11;;;;;;;1.85;1.25;;;;;;;27.17;40.32;101620.29;1778351;79;21080;-49
2021/05/23 08:40:38;;;;;;;1.75;1.02;;;;;;;27.12;40.59;101613.96;1767487;79;21068;-49
2021/05/23 08:43:10;;;;;;;2.35;1.10;;;;;;;27.06;41.07;101619.78;1772364;79;21095;-48
2021/05/23 08:45:37;;;;;;;4.62;1.30;;;;;;;27.03;41.25;101621.37;1778055;80;21531;-49
2021/05/23 08:48:06;;;;;;;5.28;1.55;;;;;;;27.05;41.30;101621.23;1773927;79;21063;-50
2021/05/23 08:50:33;;;;;;;2.65;1.40;;;;;;;27.05;41.18;101622.10;1783459;80;21551;-50
2021/05/23 08:53:02;;;;;;;1.22;1.12;;;;;;;27.07;41.06;101613.48;1772506;79;21036;-49
2021/05/23 08:55:31;;;;;;;1.52;1.30;;;;;;;27.08;41.38;101604.48;1769731;80;21099;-49
2021/05/23 08:57:59;;;;;;;2.60;1.32;;;;;;;27.17;40.78;101618.48;1768794;80;21067;-49
2021/05/23 09:00:27;;;;;;;2.35;1.00;;;;;;;27.21;41.14;101621.28;1767954;79;21089;-49
2021/05/23 09:02:57;;;;;;;4.22;2.25;;;;;;;27.21;41.14;101621.28;1783075;79;21049;-50
2021/05/23 09:05:48;;;;;;;1.90;1.30;;;;;;;27.24;41.09;101618.35;1774338;80;20989;-49
2021/05/23 09:08:21;;;;;;;2.87;1.30;;;;;;;27.27;40.91;101615.45;1759954;79;21059;-51
2021/05/23 09:10:52;;;;;;;3.50;1.30;;;;;;;27.30;40.59;101609.88;1783725;79;21069;-49
2021/05/23 09:13:34;;;;;;;1.37;1.10;;;;;;;27.30;40.59;101609.88;1772785;79;21025;-50
2021/05/23 09:16:05;;;;;;;5.45;1.87;;;;;;;27.31;40.60;101610.71;1774873;79;21574;-50
2021/05/23 09:18:56;;;;;;;1.62;1.37;;;;;;;27.25;40.83;101610.72;1756650;80;21582;-49
2021/05/23 09:21:31;;;;;;;;;;;;;;;27.21;41.05;101619.08;1778326;79;21523;-49
2021/05/23 09:24:00;;;;;;;1.35;1.10;;;;;;;27.11;41.48;101618.95;1696478;83;20151;-50
2021/05/23 09:26:30;;;;;;;5.35;1.50;;;;;;;27.03;41.79;101613.35;1698837;83;21584;-50
2021/05/23 09:29:14;;;;;;;2.12;1.10;;;;;;;26.95;42.18;101618.44;1705513;82;21562;-49
2021/05/23 09:31:41;;;;;;;2.45;1.32;;;;;;;26.86;42.51;101623.13;1702770;83;21620;-49
2021/05/23 09:34:08;;;;;;;2.10;1.25;;;;;;;26.78;42.77;101621.52;1703486;83;21078;-49
2021/05/23 09:36:45;;;;;;;1.30;1.20;;;;;;;26.72;43.00;101621.99;1701421;83;22274;-49
2021/05/23 09:39:11;;;;;;;1.67;1.35;;;;;;;26.67;42.91;101625.95;1702904;83;21063;-47
2021/05/23 09:41:38;;;;;;;3.47;1.37;;;;;;;26.61;42.96;101628.58;1710956;83;21141;-47
2021/05/23 09:44:24;;;;;;;2.33;1.62;;;;;;;26.59;43.11;101629.17;1706629;83;21078;-47
2021/05/23 09:47:01;;;;;;;2.12;1.57;;;;;;;26.60;42.99;101628.22;1702334;83;21126;-49
2021/05/23 09:49:29;;;;;;;3.85;1.80;;;;;;;26.61;42.84;101628.58;1644846;86;21093;-48
2021/05/23 09:52:00;;;;;;;2.22;1.40;;;;;;;26.62;42.75;101623.63;1647393;86;21611;-47
2021/05/23 09:54:30;;;;;;;2.40;1.70;;;;;;;26.71;42.96;101630.09;1648553;86;21187;-48
2021/05/23 09:56:57;;;;;;;3.58;1.62;;;;;;;26.77;43.00;101633.16;1649760;86;21056;-49
2021/05/23 09:59:26;;;;;;;3.95;1.80;;;;;;;26.82;42.91;101628.33;1642262;86;21099;-48
2021/05/23 10:02:06;;;;;;;6.08;2.05;;;;;;;26.94;42.78;101627.40;1640285;86;21114;-48
2021/05/23 10:04:34;;;;;;;5.97;1.70;;;;;;;27.00;42.85;101626.93;1627035;86;21091;-47
2021/05/23 10:07:08;;;;;;;1.55;1.10;;;;;;;27.03;42.74;101632.05;1606939;87;21095;-48
2021/05/23 10:09:37;;;;;;;4.20;1.45;;;;;;;27.03;42.74;101632.05;1576886;90;21082;-49
2021/05/23 10:12:10;;;;;;;2.45;1.10;;;;;;;27.05;42.78;101636.79;1567881;89;21720;-48
2021/05/23 10:14:37;;;;;;;2.30;1.57;;;;;;;27.06;42.94;101634.47;1569878;89;21640;-48
2021/05/23 10:17:07;;;;;;;1.77;1.30;;;;;;;27.08;42.86;101639.72;1583378;89;21102;-47
2021/05/23 10:19:35;;;;;;;2.90;1.35;;;;;;;27.09;42.83;101652.09;1580224;89;21111;-48
2021/05/23 10:22:05;;;;;;;2.80;1.60;;;;;;;27.10;42.89;101642.62;1584084;89;21202;-49
2021/05/23 10:24:50;;;;;;;1.85;1.75;;;;;;;27.10;42.86;101638.61;1588326;89;21618;-49
2021/05/23 10:27:20;;;;;;;2.47;1.30;;;;;;;27.15;42.86;101643.13;1550476;91;21217;-48
2021/05/23 10:29:50;;;;;;;1.60;1.20;;;;;;;27.15;42.86;101643.13;1555694;91;21126;-47
2021/05/23 10:32:28;;;;;;;2.52;1.95;;;;;;;27.18;42.50;101649.55;1534566;93;21147;-48
2021/05/23 10:34:56;;;;;;;2.08;1.37;;;;;;;27.18;42.50;101649.55;1516893;93;21143;-48
2021/05/23 10:37:28;;;;;;;5.85;1.65;;;;;;;27.18;42.49;101643.38;1518391;93;21088;-49
2021/05/23 10:39:55;;;;;;;2.27;1.40;;;;;;;26.84;43.16;101650.44;1518869;93;21708;-48
2021/05/23 10:42:24;;;;;;;3.35;1.50;;;;;;;26.79;43.38;101655.25;1537503;91;21171;-49
2021/05/23 10:44:54;;;;;;;1.65;1.55;;;;;;;26.77;43.41;101643.84;1584323;89;21145;-48
2021/05/23 10:47:31;;;;;;;4.67;1.80;;;;;;;26.77;43.33;101651.84;1577966;89;21117;-48
2021/05/23 10:50:05;;;;;;;1.55;1.45;;;;;;;26.75;43.23;101649.78;1559165;90;21901;-48
2021/05/23 10:52:33;;;;;;;3.17;1.50;;;;;;;26.74;43.36;101656.58;1578065;88;21647;-48
2021/05/23 10:55:16;;;;;;;4.25;1.70;;;;;;;26.70;43.43;101649.26;1605241;88;21148;-48
2021/05/23 10:57:55;;;;;;;2.87;1.30;;;;;;;26.67;43.40;101646.80;1603932;88;21599;-49
2021/05/23 11:00:24;;;;;;;3.08;1.42;;;;;;;26.69;43.55;101651.55;1571326;89;21647;-48
2021/05/23 11:02:51;;;;;;;3.85;1.30;;;;;;;26.66;43.55;101643.78;1582462;90;21721;-48
2021/05/23 11:05:26;;;;;;;1.50;1.40;;;;;;;26.69;43.49;101647.53;1604629;88;21145;-49
2021/05/23 11:08:00;;;;;;;2.10;1.30;;;;;;;26.68;43.55;101647.19;1608461;87;21131;-48
2021/05/23 11:10:41;;;;;;;4.35;1.70;;;;;;;26.77;43.29;101647.84;1608575;88;21112;-48
2021/05/23 11:13:30;;;;;;;1.87;1.42;;;;;;;26.77;43.29;101647.84;1613739;86;21125;-49
2021/05/23 11:16:17;;;;;;;2.55;1.20;;;;;;;26.71;43.63;101646.94;1672728;85;21610;-48
2021/05/23 11:18:44;;;;;;;3.00;1.52;;;;;;;26.67;43.83;101653.47;1696863;84;21063;-48
2021/05/23 11:21:15;;;;;;;2.30;1.50;;;;;;;26.67;43.83;101653.47;1687126;84;21661;-49
2021/05/23 11:26:19;;;;;;;3.42;1.40;;;;;;;26.65;43.79;101655.41;1470868;95;20195;-48
2021/05/23 11:28:50;;;;;;;2.75;1.47;;;;;;;26.64;43.87;101661.73;1483517;95;21097;-49
2021/05/23 11:31:24;;;;;;;1.35;1.25;;;;;;;26.63;43.89;101658.67;1479210;96;21127;-49
2021/05/23 11:33:51;;;;;;;4.17;1.30;;;;;;;26.62;43.87;101655.66;1442296;98;21198;-47
2021/05/23 11:36:25;;;;;;;2.27;1.22;;;;;;;26.61;43.95;101654.80;1427769;99;21263;-49
2021/05/23 11:38:57;;;;;;;1.47;1.25;;;;;;;26.59;44.05;101656.73;1440024;99;21154;-49